Time;durP1;ratioP1;P1;durP2;ratioP2;P2;SDS_P1;SDS_P2;PMS_P1;PMS_P2;Temp;Humidity;BMP_temperature;BMP_pressure;BME280_temperature;BME280_humidity;BME280_pressure;Samples;Min_cycle;Max_cycle;Signal;HPM_P1;HPM_P2
2021/03/19 00:01:21;;;;;;;22.42;4.97;;;5.80;85.70;;;;;;4998487;28;20360;-81
2021/03/19 00:03:47;;;;;;;14.30;4.03;;;5.70;85.50;;;;;;4999192;28;20837;-78
2021/03/19 00:06:13;;;;;;;14.07;3.88;;;5.70;85.50;;;;;;5009625;28;20293;-81
2021/03/19 00:08:38;;;;;;;16.80;4.20;;;5.70;85.00;;;;;;5007624;28;20535;-78
2021/03/19 00:11:04;;;;;;;16.88;3.75;;;5.70;85.30;;;;;;5001188;28;20470;-76
2021/03/19 00:13:30;;;;;;;16.13;4.28;;;5.70;84.60;;;;;;5010081;28;20400;-79
2021/03/19 00:15:55;;;;;;;15.40;4.20;;;5.70;84.50;;;;;;5000580;28;20038;-77
2021/03/19 00:18:22;;;;;;;18.48;4.45;;;5.60;84.70;;;;;;4992703;28;20091;-78
2021/03/19 00:20:48;;;;;;;18.13;4.70;;;5.50;84.60;;;;;;5002429;28;20160;-76
2021/03/19 00:23:14;;;;;;;20.83;4.65;;;5.50;84.80;;;;;;5005872;28;20580;-80
2021/03/19 00:25:41;;;;;;;17.70;4.50;;;5.40;84.70;;;;;;4998554;28;20042;-80
2021/03/19 00:28:07;;;;;;;22.23;6.00;;;5.40;84.60;;;;;;4996094;28;20077;-79
2021/03/19 00:30:34;;;;;;;15.25;4.20;;;5.30;84.60;;;;;;5004067;28;20057;-78
2021/03/19 00:33:01;;;;;;;14.15;4.00;;;5.20;84.60;;;;;;5004202;28;20034;-78
2021/03/19 00:35:27;;;;;;;18.25;4.63;;;5.20;84.40;;;;;;5002115;28;20030;-78
2021/03/19 00:37:53;;;;;;;15.90;3.88;;;5.10;84.40;;;;;;5001958;28;20045;-78
2021/03/19 00:40:19;;;;;;;13.77;3.80;;;5.10;84.50;;;;;;5005768;28;20030;-76
2021/03/19 00:42:45;;;;;;;15.68;4.25;;;5.10;84.40;;;;;;5005528;28;20057;-78
2021/03/19 00:45:14;;;;;;;14.27;3.72;;;5.10;84.50;;;;;;5001104;28;20121;-77
2021/03/19 00:47:40;;;;;;;14.70;5.13;;;5.10;84.40;;;;;;4999354;28;20022;-78
2021/03/19 00:50:13;;;;;;;16.25;4.85;;;5.00;84.30;;;;;;4997390;28;20087;-79
2021/03/19 00:52:39;;;;;;;16.60;4.13;;;5.00;84.30;;;;;;5000558;28;20042;-78
2021/03/19 00:55:07;;;;;;;13.80;4.13;;;4.90;84.30;;;;;;5007174;28;20041;-78
2021/03/19 00:57:33;;;;;;;13.38;4.55;;;4.90;84.20;;;;;;5005239;28;20443;-81
2021/03/19 00:59:59;;;;;;;20.55;4.85;;;4.80;84.20;;;;;;5003455;28;20572;-77
2021/03/19 01:02:24;;;;;;;17.25;4.95;;;4.80;83.90;;;;;;4994920;28;20180;-77
2021/03/19 01:04:51;;;;;;;21.23;5.50;;;4.70;83.90;;;;;;5003421;28;20038;-76
2021/03/19 01:07:16;;;;;;;18.40;4.28;;;4.70;83.90;;;;;;4997839;28;20110;-80
2021/03/19 01:09:42;;;;;;;15.45;4.53;;;4.70;83.80;;;;;;4994852;28;20426;-77
2021/03/19 01:12:08;;;;;;;16.52;4.35;;;4.70;83.60;;;;;;4999947;28;20022;-79
2021/03/19 01:14:33;;;;;;;17.00;4.25;;;4.70;83.30;;;;;;5001099;28;20030;-78
2021/03/19 01:16:59;;;;;;;19.15;4.13;;;4.70;83.10;;;;;;5002224;28;20030;-82
2021/03/19 01:19:25;;;;;;;12.52;4.07;;;4.70;83.10;;;;;;4996699;28;20037;-77
2021/03/19 01:21:50;;;;;;;14.98;3.95;;;4.70;82.80;;;;;;5009360;28;20037;-80
2021/03/19 01:24:16;;;;;;;15.55;4.13;;;4.60;82.80;;;;;;5014102;28;20029;-80
2021/03/19 01:26:41;;;;;;;12.63;4.05;;;4.60;82.60;;;;;;5018365;28;20478;-80
2021/03/19 01:29:07;;;;;;;12.80;4.40;;;4.50;82.80;;;;;;5005959;28;20181;-76
2021/03/19 01:31:33;;;;;;;15.52;4.22;;;4.60;82.80;;;;;;4996766;28;20041;-81
2021/03/19 01:33:59;;;;;;;16.00;5.25;;;4.40;82.70;;;;;;5002544;28;20037;-76
2021/03/19 01:36:25;;;;;;;16.05;4.55;;;4.40;82.70;;;;;;5000371;28;20115;-76
2021/03/19 01:38:50;;;;;;;14.88;4.93;;;4.40;82.80;;;;;;5007641;28;20335;-79
2021/03/19 01:41:16;;;;;;;12.43;4.20;;;4.30;82.90;;;;;;5000640;28;20026;-79
2021/03/19 01:44:06;;;;;;;17.48;4.72;;;4.20;82.90;;;;;;4997384;28;20038;-77
2021/03/19 01:47:09;;;;;;;16.55;4.53;;;4.10;82.90;;;;;;5002356;28;20037;-78
2021/03/19 01:50:14;;;;;;;12.75;3.78;;;4.10;82.00;;;;;;5002276;28;20488;-76
2021/03/19 01:53:17;;;;;;;13.63;4.47;;;4.10;81.70;;;;;;5003961;28;20040;-77
2021/03/19 01:56:20;;;;;;;11.32;3.90;;;4.10;81.70;;;;;;4999441;28;20045;-82
2021/03/19 01:59:22;;;;;;;8.05;3.83;;;4.10;81.50;;;;;;5000719;28;20565;-78
2021/03/19 02:02:25;;;;;;;9.48;3.65;;;4.00;81.60;;;;;;5002430;28;20042;-80
2021/03/19 02:05:41;;;;;;;10.32;3.60;;;4.00;81.80;;;;;;4997179;28;20049;-79
2021/03/19 02:08:44;;;;;;;9.43;4.53;;;3.90;82.00;;;;;;4982776;28;20088;-78
2021/03/19 02:11:47;;;;;;;16.77;4.60;;;3.90;82.40;;;;;;4998200;28;20034;-77
2021/03/19 02:14:50;;;;;;;16.13;4.30;;;3.80;82.80;;;;;;4995672;28;20113;-76
2021/03/19 02:17:54;;;;;;;12.55;3.92;;;3.80;83.10;;;;;;4999131;28;20514;-83
2021/03/19 02:20:57;;;;;;;12.13;4.00;;;3.80;83.20;;;;;;5000590;28;20441;-76
2021/03/19 02:24:00;;;;;;;18.45;4.78;;;3.70;83.20;;;;;;4999168;28;20445;-78
2021/03/19 02:27:03;;;;;;;12.30;4.68;;;3.70;83.40;;;;;;4996182;28;20041;-81
2021/03/19 02:30:06;;;;;;;20.17;5.22;;;3.60;83.40;;;;;;5011575;28;20029;-77
2021/03/19 02:32:32;;;;;;;13.98;4.68;;;3.60;83.30;;;;;;4996417;28;20033;-81
2021/03/19 02:35:08;;;;;;;11.68;4.07;;;3.60;83.30;;;;;;4998933;28;20034;-76
2021/03/19 02:37:36;;;;;;;13.63;4.68;;;3.60;83.40;;;;;;5002026;28;20018;-77
2021/03/19 02:40:21;;;;;;;11.23;3.85;;;3.60;83.40;;;;;;4998523;28;20461;-77
2021/03/19 02:42:47;;;;;;;15.70;4.60;;;3.60;83.20;;;;;;5003495;28;20490;-77
2021/03/19 02:45:19;;;;;;;10.35;3.53;;;3.60;83.40;;;;;;5000455;28;20117;-76
2021/03/19 02:47:45;;;;;;;15.05;5.82;;;3.60;83.40;;;;;;5001423;28;20030;-76
2021/03/19 02:50:11;;;;;;;14.85;4.10;;;3.60;83.30;;;;;;4996989;28;20038;-80
2021/03/19 02:52:41;;;;;;;11.38;4.15;;;3.70;83.40;;;;;;4996859;28;20025;-77
2021/03/19 02:55:10;;;;;;;20.23;4.22;;;3.70;83.40;;;;;;5001481;28;20350;-77
2021/03/19 02:57:36;;;;;;;11.73;3.63;;;3.70;82.80;;;;;;4999509;28;20065;-83
2021/03/19 03:00:05;;;;;;;11.43;4.28;;;3.80;82.90;;;;;;4999124;28;20077;-76
2021/03/19 03:02:30;;;;;;;10.50;4.30;;;3.80;82.70;;;;;;4993630;28;20034;-76
2021/03/19 03:04:56;;;;;;;12.32;4.35;;;3.80;82.50;;;;;;4995901;28;20049;-76
2021/03/19 03:07:29;;;;;;;13.57;3.60;;;3.90;82.50;;;;;;4997614;28;20030;-78
2021/03/19 03:09:55;;;;;;;9.73;4.30;;;3.90;82.50;;;;;;4999139;28;20048;-78
2021/03/19 03:12:21;;;;;;;10.38;3.83;;;3.90;82.60;;;;;;4996908;28;20493;-76
2021/03/19 03:14:47;;;;;;;10.73;4.10;;;3.90;82.30;;;;;;5000267;28;20073;-76
2021/03/19 03:17:13;;;;;;;10.93;4.43;;;3.90;82.10;;;;;;5006391;28;20034;-78
2021/03/19 03:19:39;;;;;;;12.43;4.85;;;3.90;81.90;;;;;;5005341;28;20095;-81
2021/03/19 03:22:06;;;;;;;12.98;5.10;;;4.00;82.10;;;;;;5003850;28;20500;-78
2021/03/19 03:24:32;;;;;;;12.68;4.68;;;4.00;81.70;;;;;;5006020;28;20041;-77
2021/03/19 03:26:58;;;;;;;10.68;4.90;;;3.90;81.80;;;;;;5007369;28;20038;-77
2021/03/19 03:29:25;;;;;;;12.40;4.95;;;3.90;81.80;;;;;;4995707;28;20508;-77
2021/03/19 03:31:52;;;;;;;9.55;4.80;;;3.80;81.90;;;;;;4991065;28;20048;-77
2021/03/19 03:34:18;;;;;;;13.20;5.50;;;3.80;82.30;;;;;;4996505;28;20393;-76
2021/03/19 03:36:44;;;;;;;15.43;6.03;;;3.70;82.60;;;;;;4996099;28;20061;-76
2021/03/19 03:39:14;;;;;;;11.35;6.65;;;3.70;82.70;;;;;;5000147;28;20025;-75
2021/03/19 03:41:41;;;;;;;14.95;6.75;;;3.60;82.90;;;;;;4995927;28;20128;-76
2021/03/19 03:44:08;;;;;;;14.23;7.82;;;3.60;83.10;;;;;;4994787;28;20037;-77
2021/03/19 03:46:33;;;;;;;15.55;8.27;;;3.50;83.30;;;;;;5005780;28;20030;-77
2021/03/19 03:49:00;;;;;;;16.42;7.70;;;3.50;83.30;;;;;;4994628;28;20026;-76
2021/03/19 03:51:28;;;;;;;16.17;8.82;;;3.50;83.40;;;;;;4991691;28;20088;-77
2021/03/19 03:53:54;;;;;;;18.05;9.00;;;3.40;83.60;;;;;;4999355;28;20030;-77
2021/03/19 03:56:21;;;;;;;15.32;9.23;;;3.30;83.70;;;;;;4995806;28;20351;-77
2021/03/19 03:58:47;;;;;;;11.20;7.50;;;3.30;83.60;;;;;;5002889;28;20955;-78
2021/03/19 04:01:13;;;;;;;13.30;7.65;;;3.30;83.90;;;;;;5003638;28;20093;-77
2021/03/19 04:03:38;;;;;;;16.20;8.10;;;3.30;83.90;;;;;;5003142;28;20349;-77
2021/03/19 04:06:06;;;;;;;16.52;8.80;;;3.20;83.90;;;;;;5002293;28;20034;-76
2021/03/19 04:08:32;;;;;;;17.02;8.13;;;3.20;84.20;;;;;;5003089;28;20573;-76
2021/03/19 04:11:01;;;;;;;15.88;7.82;;;3.10;84.40;;;;;;5003395;28;20057;-78
2021/03/19 04:13:29;;;;;;;14.98;8.40;;;3.10;84.70;;;;;;4998308;28;20057;-78
2021/03/19 04:15:55;;;;;;;14.80;7.85;;;3.10;84.70;;;;;;5001817;28;20049;-77
2021/03/19 04:18:22;;;;;;;15.05;8.25;;;3.00;84.80;;;;;;5003309;28;20037;-79
2021/03/19 04:20:51;;;;;;;15.82;8.45;;;2.90;84.90;;;;;;5007770;28;20045;-76
2021/03/19 04:23:16;;;;;;;19.77;8.60;;;2.90;84.90;;;;;;4999423;28;20121;-76
2021/03/19 04:25:42;;;;;;;19.75;9.93;;;2.80;85.00;;;;;;5003269;28;20133;-80
2021/03/19 04:28:13;;;;;;;16.60;9.07;;;2.80;85.20;;;;;;5004105;28;20058;-79
2021/03/19 04:30:41;;;;;;;18.42;9.68;;;2.80;85.20;;;;;;5002261;28;20029;-76
2021/03/19 04:33:12;;;;;;;14.88;8.85;;;2.70;85.30;;;;;;5003456;28;20018;-76
2021/03/19 04:35:39;;;;;;;17.13;9.60;;;2.80;85.20;;;;;;5000175;28;20557;-77
2021/03/19 04:38:08;;;;;;;17.65;9.90;;;2.70;85.40;;;;;;5000900;28;20055;-80
2021/03/19 04:40:35;;;;;;;15.65;9.23;;;2.70;85.40;;;;;;5004867;28;20046;-79
2021/03/19 04:43:03;;;;;;;17.77;8.98;;;2.70;85.50;;;;;;4997961;28;20113;-77
2021/03/19 04:45:29;;;;;;;17.90;9.35;;;2.70;85.50;;;;;;5021148;28;20390;-78
2021/03/19 04:47:56;;;;;;;20.08;9.35;;;2.70;85.60;;;;;;5009236;28;20561;-76
2021/03/19 04:50:24;;;;;;;18.10;9.27;;;2.60;85.50;;;;;;4999763;28;20042;-78
2021/03/19 04:52:51;;;;;;;14.80;9.00;;;2.60;85.80;;;;;;5001528;28;20044;-80
2021/03/19 04:55:17;;;;;;;17.17;8.93;;;2.60;85.90;;;;;;5005522;28;20037;-76
2021/03/19 04:57:42;;;;;;;18.88;10.30;;;2.60;86.00;;;;;;4998329;28;20543;-77
2021/03/19 05:00:12;;;;;;;16.95;10.60;;;2.50;86.20;;;;;;4998267;28;20026;-79
2021/03/19 05:02:42;;;;;;;20.30;11.02;;;2.50;86.40;;;;;;5002858;28;20036;-76
2021/03/19 05:05:14;;;;;;;19.00;10.95;;;2.50;86.60;;;;;;5009041;28;20538;-76
2021/03/19 05:07:40;;;;;;;20.85;11.27;;;2.50;86.40;;;;;;5000220;28;20084;-77
2021/03/19 05:10:07;;;;;;;19.80;10.95;;;2.40;86.80;;;;;;5007875;28;20041;-80
2021/03/19 05:12:33;;;;;;;20.05;10.95;;;2.40;86.80;;;;;;5007806;28;20028;-79
2021/03/19 05:14:58;;;;;;;23.75;12.45;;;2.40;86.90;;;;;;5003242;28;20026;-76
2021/03/19 05:17:24;;;;;;;23.60;12.35;;;2.40;87.10;;;;;;5000627;28;20026;-80
2021/03/19 05:19:50;;;;;;;20.55;11.65;;;2.40;87.20;;;;;;5001593;28;20061;-76
2021/03/19 05:22:16;;;;;;;21.88;12.50;;;2.40;87.20;;;;;;4998073;28;20022;-77
2021/03/19 05:24:41;;;;;;;20.10;12.48;;;2.40;87.10;;;;;;4999386;28;20027;-78
2021/03/19 05:27:07;;;;;;;20.27;12.20;;;2.40;87.00;;;;;;5005761;28;20042;-77
2021/03/19 05:29:33;;;;;;;22.55;12.93;;;2.40;87.10;;;;;;5000624;28;20386;-77
2021/03/19 05:31:58;;;;;;;23.42;13.73;;;2.30;87.10;;;;;;5001716;28;20376;-76
2021/03/19 05:34:24;;;;;;;21.77;13.13;;;2.30;87.20;;;;;;5000889;28;20065;-76
2021/03/19 05:36:50;;;;;;;22.65;13.98;;;2.30;87.30;;;;;;4997194;28;20038;-78
2021/03/19 05:39:16;;;;;;;20.95;13.18;;;2.20;87.50;;;;;;4998509;28;20030;-78
2021/03/19 05:41:43;;;;;;;22.05;13.55;;;2.20;87.50;;;;;;4996863;28;20092;-79
2021/03/19 05:44:15;;;;;;;22.60;14.07;;;2.30;87.40;;;;;;5001833;28;20057;-77
2021/03/19 05:46:47;;;;;;;23.27;15.00;;;2.20;87.40;;;;;;5001700;28;20042;-77
2021/03/19 05:49:25;;;;;;;22.88;14.80;;;2.20;87.30;;;;;;5004660;28;20393;-76
2021/03/19 05:51:56;;;;;;;22.00;15.32;;;2.20;87.50;;;;;;5003439;28;20443;-77
2021/03/19 05:54:26;;;;;;;21.73;14.93;;;2.20;87.50;;;;;;4999750;28;20500;-79
2021/03/19 05:57:22;;;;;;;22.08;15.27;;;2.20;87.60;;;;;;5001978;28;20325;-83
2021/03/19 05:59:50;;;;;;;22.38;15.15;;;2.20;87.60;;;;;;4991765;28;20195;-76
2021/03/19 06:02:25;;;;;;;24.30;15.27;;;2.20;87.60;;;;;;4994126;28;20029;-79
2021/03/19 06:05:09;;;;;;;23.23;16.35;;;2.20;87.80;;;;;;4996995;28;20029;-82
2021/03/19 06:07:55;;;;;;;23.58;16.25;;;2.20;87.90;;;;;;4996257;28;20042;-81
2021/03/19 06:10:32;;;;;;;25.90;16.98;;;2.20;87.80;;;;;;4992239;28;20118;-77
2021/03/19 06:13:11;;;;;;;25.70;17.55;;;2.20;87.80;;;;;;4998862;28;20509;-81
2021/03/19 06:15:44;;;;;;;24.40;16.85;;;2.20;88.00;;;;;;5010269;28;20858;-79
2021/03/19 06:18:46;;;;;;;27.73;18.55;;;2.20;87.90;;;;;;4995602;28;20668;-80
2021/03/19 06:21:20;;;;;;;26.85;17.02;;;2.20;87.90;;;;;;4993340;28;20066;-77
2021/03/19 06:24:20;;;;;;;26.37;17.87;;;2.30;88.00;;;;;;5010440;28;20409;-77
2021/03/19 06:26:46;;;;;;;28.08;18.48;;;2.30;87.90;;;;;;4988559;28;20363;-82
2021/03/19 06:29:29;;;;;;;26.17;17.25;;;2.30;87.80;;;;;;4996834;28;20026;-80
2021/03/19 06:32:29;;;;;;;27.77;17.92;;;2.30;87.80;;;;;;4992490;28;20030;-82
2021/03/19 06:35:10;;;;;;;32.00;18.30;;;2.40;87.70;;;;;;4964150;28;20465;-78
2021/03/19 06:37:44;;;;;;;28.70;17.90;;;2.40;87.90;;;;;;5003199;28;20136;-75
2021/03/19 06:40:25;;;;;;;28.58;17.83;;;2.50;87.80;;;;;;4992317;28;20392;-74
2021/03/19 06:42:51;;;;;;;24.88;17.58;;;2.80;86.90;;;;;;4993842;28;20319;-73
2021/03/19 06:45:23;;;;;;;22.60;15.68;;;3.30;85.60;;;;;;4988961;28;20058;-73
2021/03/19 06:47:57;;;;;;;23.15;15.68;;;3.90;83.20;;;;;;5010257;28;20050;-76
2021/03/19 06:50:23;;;;;;;22.53;14.17;;;4.20;81.20;;;;;;4991629;28;20497;-77
2021/03/19 06:52:51;;;;;;;21.38;15.10;;;4.40;80.60;;;;;;4992034;28;20033;-74
2021/03/19 06:55:37;;;;;;;23.08;15.27;;;4.50;80.10;;;;;;4991619;28;20115;-75
2021/03/19 06:58:03;;;;;;;24.23;16.48;;;4.50;80.00;;;;;;4998463;28;20030;-74
2021/03/19 07:00:49;;;;;;;25.52;17.60;;;4.00;81.40;;;;;;4991680;28;20042;-73
2021/03/19 07:03:35;;;;;;;28.50;18.40;;;3.60;83.00;;;;;;4997133;28;20088;-74
2021/03/19 07:06:16;;;;;;;29.27;19.05;;;3.40;84.10;;;;;;4989036;28;20053;-74
2021/03/19 07:09:03;;;;;;;26.30;18.90;;;3.20;85.10;;;;;;4988593;28;20037;-77
2021/03/19 07:11:48;;;;;;;30.45;18.88;;;3.20;85.20;;;;;;4993088;28;20053;-74
2021/03/19 07:14:32;;;;;;;29.15;17.60;;;3.20;85.20;;;;;;4995067;28;20074;-76
2021/03/19 07:17:19;;;;;;;28.03;19.03;;;3.20;85.20;;;;;;4998618;28;20117;-73
2021/03/19 07:19:44;;;;;;;25.90;17.20;;;3.30;85.10;;;;;;5002579;28;20309;-74
2021/03/19 07:22:24;;;;;;;27.92;16.90;;;3.40;84.60;;;;;;4995092;28;20065;-73
2021/03/19 07:25:08;;;;;;;24.55;17.58;;;3.40;84.30;;;;;;5003374;28;20042;-73
2021/03/19 07:27:39;;;;;;;26.63;17.42;;;3.40;84.20;;;;;;4991068;28;20526;-75
2021/03/19 07:30:28;;;;;;;26.45;16.20;;;3.50;84.00;;;;;;4995345;28;20025;-73
2021/03/19 07:33:14;;;;;;;26.95;17.20;;;3.60;84.00;;;;;;4989969;28;20069;-77
2021/03/19 07:36:10;;;;;;;24.35;15.32;;;3.70;83.30;;;;;;4993144;28;20489;-72
2021/03/19 07:38:49;;;;;;;25.25;15.63;;;3.80;83.00;;;;;;4998670;28;20497;-72
2021/03/19 07:41:53;;;;;;;22.13;14.00;;;3.90;82.10;;;;;;4991950;28;20031;-72
2021/03/19 07:44:22;;;;;;;19.95;13.63;;;3.90;81.10;;;;;;4995758;28;20042;-77
2021/03/19 07:47:19;;;;;;;20.38;13.80;;;4.10;80.00;;;;;;4999672;28;20116;-73
2021/03/19 07:49:48;;;;;;;22.50;12.98;;;4.10;79.60;;;;;;5002115;28;20037;-73
2021/03/19 07:52:25;;;;;;;21.25;12.98;;;4.20;79.50;;;;;;4997476;28;20148;-72
2021/03/19 07:55:11;;;;;;;17.75;12.07;;;4.40;79.30;;;;;;5001584;28;20115;-75
2021/03/19 07:57:50;;;;;;;20.58;12.00;;;4.50;75.90;;;;;;5001869;28;20052;-75
2021/03/19 08:00:25;;;;;;;18.90;12.70;;;4.60;77.60;;;;;;4997667;28;20042;-75
2021/03/19 08:03:11;;;;;;;17.30;10.73;;;4.80;76.60;;;;;;4999711;28;20041;-73
2021/03/19 08:05:50;;;;;;;16.88;10.75;;;4.90;75.50;;;;;;4999808;28;20046;-73
2021/03/19 08:08:41;;;;;;;15.02;10.05;;;5.10;74.30;;;;;;4999621;28;20038;-74
2021/03/19 08:11:22;;;;;;;15.70;8.93;;;5.20;73.10;;;;;;4998655;28;20228;-75
2021/03/19 08:14:09;;;;;;;14.48;8.15;;;5.30;72.10;;;;;;5002172;28;20041;-76
2021/03/19 08:16:43;;;;;;;15.82;8.43;;;5.30;70.40;;;;;;5005239;28;20049;-76
2021/03/19 08:19:08;;;;;;;16.00;7.30;;;5.60;70.70;;;;;;5001090;28;20088;-75
2021/03/19 08:21:57;;;;;;;14.35;6.68;;;5.70;68.50;;;;;;5000197;28;20217;-75
2021/03/19 08:24:38;;;;;;;10.00;5.47;;;5.90;66.30;;;;;;5002603;28;20035;-69
2021/03/19 08:27:26;;;;;;;12.07;5.70;;;5.80;64.50;;;;;;5021772;28;20045;-74
2021/03/19 08:30:16;;;;;;;9.80;5.22;;;5.90;64.00;;;;;;5001871;28;20079;-69
2021/03/19 08:33:00;;;;;;;8.65;4.95;;;6.20;64.20;;;;;;4999377;28;20497;-70
2021/03/19 08:35:42;;;;;;;10.67;5.30;;;6.00;62.10;;;;;;5006826;28;20105;-68
2021/03/19 08:38:23;;;;;;;10.65;5.32;;;5.90;62.70;;;;;;5014229;28;20030;-70
2021/03/19 08:41:01;;;;;;;10.05;4.80;;;6.20;61.30;;;;;;5022159;28;20041;-69
2021/03/19 08:43:30;;;;;;;11.20;5.80;;;6.10;61.20;;;;;;5001789;28;20043;-71
2021/03/19 08:46:11;;;;;;;10.05;5.03;;;6.00;61.20;;;;;;5011277;28;20054;-70
2021/03/19 08:48:48;;;;;;;10.30;5.68;;;6.00;60.90;;;;;;5007355;28;20045;-70
2021/03/19 08:51:29;;;;;;;10.43;5.53;;;6.20;61.80;;;;;;5000811;28;20041;-70
2021/03/19 08:54:15;;;;;;;11.70;5.32;;;6.60;62.20;;;;;;5010147;28;20075;-69
2021/03/19 08:56:48;;;;;;;8.48;4.50;;;6.80;61.30;;;;;;5002552;28;20046;-69
2021/03/19 08:59:36;;;;;;;11.18;4.95;;;6.60;59.30;;;;;;5007784;28;20121;-73
2021/03/19 09:02:04;;;;;;;10.00;4.43;;;6.70;60.40;;;;;;5005374;28;20029;-69
2021/03/19 09:04:52;;;;;;;12.80;5.20;;;6.80;59.60;;;;;;5010079;28;20072;-69
2021/03/19 09:07:31;;;;;;;9.52;5.63;;;6.60;60.40;;;;;;5010533;28;20128;-70
2021/03/19 09:10:26;;;;;;;9.15;5.18;;;6.90;60.00;;;;;;5016351;28;20428;-68
2021/03/19 09:12:54;;;;;;;9.55;5.07;;;6.80;58.40;;;;;;4986737;28;20021;-69
2021/03/19 09:15:20;;;;;;;8.63;4.65;;;6.80;58.20;;;;;;5005523;28;20042;-69
2021/03/19 09:17:51;;;;;;;8.55;4.78;;;6.80;57.70;;;;;;5003940;28;20034;-69
2021/03/19 09:20:40;;;;;;;11.73;5.53;;;7.00;58.10;;;;;;5006256;28;20053;-71
2021/03/19 09:23:08;;;;;;;9.07;4.75;;;7.30;57.20;;;;;;4987168;28;20496;-69
2021/03/19 09:25:41;;;;;;;9.60;4.85;;;7.10;57.00;;;;;;5016265;28;21624;-71
2021/03/19 09:28:19;;;;;;;8.55;5.15;;;7.30;57.20;;;;;;5000756;28;20029;-70
2021/03/19 09:30:55;;;;;;;9.88;5.85;;;7.20;58.60;;;;;;5006358;28;20029;-70
2021/03/19 09:33:43;;;;;;;10.27;4.53;;;6.80;55.90;;;;;;5002500;28;20038;-71
2021/03/19 09:36:46;;;;;;;8.07;4.47;;;6.70;56.30;;;;;;5006973;28;20034;-72
2021/03/19 09:40:14;;;;;;;8.00;5.00;;;6.80;55.90;;;;;;5004133;28;20034;-69
2021/03/19 09:42:43;;;;;;;8.52;4.30;;;7.10;54.70;;;;;;4956570;28;20058;-70
2021/03/19 09:45:09;;;;;;;10.27;5.57;;;7.20;54.00;;;;;;4990500;28;20045;-70
2021/03/19 09:47:41;;;;;;;12.60;6.13;;;7.40;54.30;;;;;;5005439;28;20042;-71
2021/03/19 09:50:34;;;;;;;9.52;5.18;;;7.50;53.70;;;;;;5003580;28;20381;-71
2021/03/19 09:53:01;;;;;;;10.68;4.85;;;7.60;54.20;;;;;;5005482;28;20042;-70
2021/03/19 09:55:38;;;;;;;14.20;4.88;;;7.80;53.10;;;;;;5004739;28;20581;-72
2021/03/19 09:58:21;;;;;;;8.18;4.57;;;7.70;55.50;;;;;;5000438;28;20038;-71
2021/03/19 10:01:02;;;;;;;9.07;4.60;;;7.90;54.80;;;;;;5000008;28;20037;-69
2021/03/19 10:03:59;;;;;;;9.02;4.95;;;8.20;53.80;;;;;;4998072;28;20025;-70
2021/03/19 10:06:31;;;;;;;11.10;5.22;;;8.00;53.10;;;;;;4999842;28;20063;-69
2021/03/19 10:09:13;;;;;;;9.80;5.57;;;8.10;54.10;;;;;;5004833;28;20072;-71
2021/03/19 10:11:53;;;;;;;9.30;4.60;;;8.20;52.80;;;;;;5006224;28;20065;-70
2021/03/19 10:14:27;;;;;;;8.50;4.40;;;7.90;53.40;;;;;;5004112;28;20038;-70
2021/03/19 10:17:15;;;;;;;8.18;4.32;;;7.90;53.80;;;;;;4996757;28;20730;-73
2021/03/19 10:19:43;;;;;;;8.48;4.68;;;8.10;52.10;;;;;;4998437;28;20033;-70
2021/03/19 10:22:10;;;;;;;10.27;5.93;;;7.80;53.00;;;;;;4994915;28;20121;-70
2021/03/19 10:24:36;;;;;;;11.32;5.18;;;8.00;54.80;;;;;;4992511;28;20452;-71
2021/03/19 10:27:10;;;;;;;10.68;5.88;;;8.30;52.00;;;;;;4997496;28;20042;-71
2021/03/19 10:29:38;;;;;;;8.68;4.68;;;8.20;52.00;;;;;;4997349;28;20034;-72
2021/03/19 10:32:15;;;;;;;9.35;4.65;;;7.80;52.20;;;;;;4996374;28;20042;-70
2021/03/19 10:34:55;;;;;;;9.07;4.63;;;8.10;53.00;;;;;;4997548;28;20477;-69
2021/03/19 10:37:38;;;;;;;9.60;5.32;;;8.00;53.00;;;;;;5004955;28;25243;-70
2021/03/19 10:40:15;;;;;;;8.82;4.10;;;8.10;54.20;;;;;;4995479;28;20076;-70
2021/03/19 10:43:08;;;;;;;7.15;4.10;;;8.40;51.50;;;;;;4996088;28;20466;-70
2021/03/19 10:45:55;;;;;;;8.43;4.35;;;8.40;51.30;;;;;;4995468;28;20537;-70
2021/03/19 10:49:06;;;;;;;8.27;4.25;;;8.10;52.80;;;;;;4995138;28;20050;-69
2021/03/19 10:51:47;;;;;;;8.95;3.80;;;8.30;51.50;;;;;;4972558;28;20236;-69
2021/03/19 10:54:33;;;;;;;7.70;4.22;;;8.10;51.50;;;;;;4989186;28;20459;-69
2021/03/19 10:57:22;;;;;;;7.70;4.47;;;8.30;52.30;;;;;;4995179;28;20205;-69
2021/03/19 10:59:52;;;;;;;9.65;4.82;;;8.30;52.00;;;;;;4995483;28;20045;-70
2021/03/19 11:02:30;;;;;;;8.80;4.10;;;8.40;52.50;;;;;;4995048;28;20038;-71
2021/03/19 11:04:56;;;;;;;9.45;4.10;;;8.50;53.20;;;;;;4996184;28;21366;-68
2021/03/19 11:07:28;;;;;;;6.82;3.70;;;8.20;52.90;;;;;;4994137;28;20057;-69
2021/03/19 11:10:21;;;;;;;10.43;4.25;;;8.40;53.80;;;;;;4994805;28;20564;-73
2021/03/19 11:13:17;;;;;;;9.98;4.38;;;8.60;52.60;;;;;;4995406;28;20039;-70
2021/03/19 11:15:48;;;;;;;8.23;4.38;;;8.80;53.20;;;;;;4993091;28;20049;-70
2021/03/19 11:18:14;;;;;;;10.43;5.20;;;8.70;52.50;;;;;;4998710;28;20037;-69
2021/03/19 11:20:40;;;;;;;7.78;4.22;;;8.90;53.80;;;;;;5014412;28;20081;-69
2021/03/19 11:23:36;;;;;;;10.40;4.60;;;8.80;52.40;;;;;;4996963;28;20030;-70
2021/03/19 11:26:28;;;;;;;8.10;4.10;;;8.60;51.50;;;;;;4991156;28;20046;-69
2021/03/19 11:29:24;;;;;;;7.32;3.95;;;8.30;51.40;;;;;;4991228;28;20049;-70
2021/03/19 11:32:00;;;;;;;7.90;4.35;;;8.40;53.40;;;;;;4992304;28;20057;-72
2021/03/19 11:34:29;;;;;;;9.52;4.25;;;8.60;51.90;;;;;;4989131;28;20045;-69
2021/03/19 11:37:01;;;;;;;10.82;5.03;;;8.40;52.10;;;;;;4986081;28;20073;-71
2021/03/19 11:39:42;;;;;;;13.70;5.15;;;8.50;51.10;;;;;;4987168;28;20042;-70
2021/03/19 11:42:14;;;;;;;8.48;4.75;;;8.40;52.40;;;;;;4994038;28;20038;-70
2021/03/19 11:44:41;;;;;;;9.80;4.40;;;8.90;52.90;;;;;;4996003;28;20152;-71
2021/03/19 11:47:17;;;;;;;9.80;5.10;;;9.00;52.80;;;;;;4990105;28;20038;-71
2021/03/19 11:49:44;;;;;;;8.40;4.35;;;8.90;51.60;;;;;;4991078;28;20061;-71
2021/03/19 11:52:14;;;;;;;7.15;4.00;;;8.80;51.70;;;;;;4996305;28;20029;-70
2021/03/19 11:54:41;;;;;;;9.40;4.78;;;8.70;51.50;;;;;;4995692;28;20412;-72
2021/03/19 11:57:08;;;;;;;8.70;4.15;;;8.60;51.50;;;;;;4990688;28;20026;-70
2021/03/19 11:59:34;;;;;;;9.05;4.72;;;8.70;52.10;;;;;;4991586;28;20044;-73
2021/03/19 12:02:02;;;;;;;7.40;4.10;;;8.70;52.10;;;;;;4988997;28;20046;-69
2021/03/19 12:04:28;;;;;;;9.32;5.65;;;8.90;51.40;;;;;;4991130;28;20030;-69
2021/03/19 12:06:53;;;;;;;12.35;4.80;;;9.00;51.40;;;;;;4988745;28;20089;-73
2021/03/19 12:09:19;;;;;;;8.85;5.00;;;9.00;52.00;;;;;;4992535;28;20057;-69
2021/03/19 12:11:45;;;;;;;9.52;4.72;;;9.00;52.10;;;;;;4992990;28;20369;-70
2021/03/19 12:14:21;;;;;;;10.32;5.55;;;9.10;52.40;;;;;;4988474;28;20041;-70
2021/03/19 12:16:46;;;;;;;8.93;5.20;;;9.30;51.40;;;;;;5007476;28;20043;-71
2021/03/19 12:19:15;;;;;;;9.85;4.60;;;9.50;50.80;;;;;;4990185;28;20069;-72
2021/03/19 12:21:41;;;;;;;8.68;4.80;;;9.50;50.00;;;;;;4992468;28;20022;-71
2021/03/19 12:24:07;;;;;;;7.75;4.60;;;9.20;51.00;;;;;;4991798;28;20509;-72
2021/03/19 12:26:33;;;;;;;9.98;5.03;;;9.00;50.10;;;;;;4991830;28;20093;-71
2021/03/19 12:28:59;;;;;;;9.15;5.28;;;8.90;51.50;;;;;;4993641;28;20118;-70
2021/03/19 12:31:24;;;;;;;11.18;5.75;;;9.10;51.40;;;;;;4992633;28;20030;-70
2021/03/19 12:33:50;;;;;;;9.60;5.45;;;8.90;51.60;;;;;;4989181;28;20037;-70
2021/03/19 12:36:16;;;;;;;8.23;5.13;;;8.80;52.70;;;;;;4987981;28;20358;-71
2021/03/19 12:38:41;;;;;;;9.98;5.38;;;8.90;51.80;;;;;;5001611;28;20588;-69
2021/03/19 12:41:07;;;;;;;10.23;5.85;;;9.20;52.20;;;;;;4994111;28;20069;-70
2021/03/19 12:43:33;;;;;;;12.20;6.18;;;9.60;50.50;;;;;;4996036;28;20089;-70
2021/03/19 12:45:59;;;;;;;11.65;5.95;;;9.10;50.70;;;;;;4991661;28;20463;-71
2021/03/19 12:48:24;;;;;;;9.93;4.95;;;9.10;52.70;;;;;;4991839;28;20046;-69
2021/03/19 12:50:50;;;;;;;8.05;4.55;;;9.00;52.20;;;;;;4998154;28;20034;-70
2021/03/19 12:53:19;;;;;;;11.20;4.88;;;9.20;52.30;;;;;;4990041;28;20038;-69
2021/03/19 12:55:45;;;;;;;10.98;5.75;;;9.10;50.90;;;;;;4993248;28;20080;-72
2021/03/19 12:58:11;;;;;;;9.82;5.20;;;9.20;52.30;;;;;;4995772;28;20389;-70
2021/03/19 13:00:39;;;;;;;9.82;5.45;;;9.20;53.10;;;;;;4990907;28;20034;-69
2021/03/19 13:03:05;;;;;;;8.57;4.90;;;9.50;52.50;;;;;;4995832;28;20030;-71
2021/03/19 13:05:32;;;;;;;9.80;5.30;;;9.60;50.50;;;;;;5001384;28;20037;-70
2021/03/19 13:07:58;;;;;;;10.63;5.40;;;9.60;50.80;;;;;;5000334;28;20362;-70
2021/03/19 13:10:26;;;;;;;10.73;5.28;;;9.60;49.30;;;;;;4997852;28;20219;-69
2021/03/19 13:12:52;;;;;;;9.07;4.88;;;9.40;49.70;;;;;;4999989;28;20117;-69
2021/03/19 13:15:21;;;;;;;7.57;4.28;;;9.40;50.10;;;;;;5013691;28;20509;-69
2021/03/19 13:17:48;;;;;;;8.88;5.18;;;9.20;50.80;;;;;;5000186;28;20026;-70
2021/03/19 13:20:15;;;;;;;10.88;5.57;;;9.10;51.00;;;;;;4995699;28;20127;-70
2021/03/19 13:22:42;;;;;;;9.63;5.03;;;9.20;50.70;;;;;;5001604;28;20033;-69
2021/03/19 13:25:13;;;;;;;9.40;4.38;;;9.20;51.30;;;;;;4998936;28;20494;-69